createdAt,value
2018-07-17T00:00:21.602Z,21.72
2018-07-17T00:01:21.592Z,21.71
2018-07-17T00:02:21.546Z,21.76
2018-07-17T00:03:21.672Z,21.78
2018-07-17T00:04:21.473Z,21.79
2018-07-17T00:05:21.449Z,21.81
2018-07-17T00:06:21.425Z,21.85
2018-07-17T00:07:21.406Z,21.82
2018-07-17T00:08:22.558Z,21.74
2018-07-17T00:09:21.580Z,21.75
2018-07-17T00:10:21.304Z,21.81
2018-07-17T00:11:21.373Z,21.72
2018-07-17T00:12:21.268Z,21.72
2018-07-17T00:13:21.211Z,21.63
2018-07-17T00:14:21.214Z,21.53
2018-07-17T00:15:21.385Z,21.44
2018-07-17T00:16:21.117Z,21.29
2018-07-17T00:17:21.144Z,21.27
2018-07-17T00:18:21.241Z,21.32
2018-07-17T00:19:21.031Z,21.16
2018-07-17T00:20:21.040Z,21.13
2018-07-17T00:21:22.298Z,21.06
2018-07-17T00:22:20.920Z,21.01
2018-07-17T00:23:20.888Z,20.95
2018-07-17T00:24:20.942Z,21.05
2018-07-17T00:25:20.850Z,20.99
2018-07-17T00:26:20.798Z,20.95
2018-07-17T00:27:20.766Z,20.87
2018-07-17T00:28:20.736Z,20.87
2018-07-17T00:29:20.713Z,20.81
2018-07-17T00:30:20.697Z,20.79
2018-07-17T00:31:20.644Z,20.66
2018-07-17T00:32:20.955Z,20.62
2018-07-17T00:33:20.594Z,20.64
2018-07-17T00:34:20.563Z,20.69
2018-07-17T00:35:20.559Z,20.62
2018-07-17T00:36:21.735Z,20.65
2018-07-17T00:37:20.464Z,20.68
2018-07-17T00:39:20.396Z,20.69
2018-07-17T00:40:20.381Z,20.62
2018-07-17T00:41:20.338Z,20.61
2018-07-17T00:42:20.518Z,20.62
2018-07-17T00:44:20.448Z,20.65
2018-07-17T00:45:20.205Z,20.51
2018-07-17T00:46:20.218Z,20.56
2018-07-17T00:47:20.155Z,20.62
2018-07-17T00:48:20.132Z,20.53
2018-07-17T00:49:20.126Z,20.58
2018-07-17T00:50:20.059Z,20.54
2018-07-17T00:51:20.032Z,20.58
2018-07-17T00:52:19.999Z,20.58
2018-07-17T00:53:19.977Z,20.56
2018-07-17T00:54:19.926Z,20.53
2018-07-17T00:55:19.959Z,20.59
2018-07-17T00:56:19.883Z,20.51
2018-07-17T00:57:19.840Z,20.50
2018-07-17T00:58:19.833Z,20.58
2018-07-17T00:59:19.781Z,20.51
2018-07-17T01:00:19.750Z,20.53
2018-07-17T01:01:19.707Z,20.59
2018-07-17T01:02:19.912Z,20.51
2018-07-17T01:03:19.638Z,20.53
2018-07-17T01:04:20.072Z,20.43
2018-07-17T01:05:19.591Z,20.39
2018-07-17T01:06:19.555Z,20.41
2018-07-17T01:07:19.530Z,20.38
2018-07-17T01:08:19.501Z,20.34
2018-07-17T01:09:19.461Z,20.20
2018-07-17T01:10:19.429Z,20.24
2018-07-17T01:11:19.389Z,20.21
2018-07-17T01:12:19.360Z,20.16
2018-07-17T01:13:19.359Z,20.16
2018-07-17T01:14:19.296Z,20.16
2018-07-17T01:15:19.321Z,20.05
2018-07-17T01:16:19.438Z,20.08
2018-07-17T01:17:19.230Z,20.00
2018-07-17T01:18:19.178Z,20.09
2018-07-17T01:19:19.142Z,19.98
2018-07-17T01:20:19.179Z,19.94
2018-07-17T01:21:19.089Z,19.88
2018-07-17T01:22:19.049Z,19.88
2018-07-17T01:23:19.030Z,19.94
2018-07-17T01:24:19.000Z,19.95
2018-07-17T01:25:19.008Z,20.06
2018-07-17T01:26:18.929Z,19.98
2018-07-17T01:27:18.880Z,20.00
2018-07-17T01:28:18.864Z,20.06
2018-07-17T01:29:18.830Z,20.09
2018-07-17T01:30:18.809Z,20.15
2018-07-17T01:31:18.760Z,20.09
2018-07-17T01:32:18.742Z,20.09
2018-07-17T01:33:18.705Z,19.98
2018-07-17T01:34:18.684Z,20.09
2018-07-17T01:35:18.636Z,20.02
2018-07-17T01:36:18.685Z,19.98
2018-07-17T01:37:18.570Z,19.98
2018-07-17T01:38:18.583Z,19.88
2018-07-17T01:39:18.519Z,19.88
2018-07-17T01:40:18.479Z,19.94
2018-07-17T01:41:18.449Z,19.83
2018-07-17T01:42:18.487Z,19.86
2018-07-17T01:43:18.378Z,19.80
2018-07-17T01:44:18.386Z,19.80
2018-07-17T01:45:18.314Z,19.84
2018-07-17T01:46:18.298Z,19.88
2018-07-17T01:47:18.308Z,19.93
2018-07-17T01:48:18.239Z,19.97
2018-07-17T01:49:18.278Z,20.02
2018-07-17T01:50:18.150Z,19.98
2018-07-17T01:51:18.137Z,20.06
2018-07-17T01:52:18.093Z,20.03
2018-07-17T01:53:18.093Z,20.06
2018-07-17T01:54:18.038Z,20.02
2018-07-17T01:55:18.010Z,19.91
2018-07-17T01:56:17.972Z,19.94
2018-07-17T01:57:17.925Z,19.88
2018-07-17T01:58:17.897Z,19.94
2018-07-17T01:59:17.892Z,19.95
2018-07-17T02:00:17.843Z,19.84
2018-07-17T02:01:17.801Z,19.86
2018-07-17T02:02:17.774Z,19.70
2018-07-17T02:03:17.757Z,19.70
2018-07-17T02:04:17.706Z,19.73
2018-07-17T02:05:17.678Z,19.68
2018-07-17T02:06:17.637Z,19.69
2018-07-17T02:07:17.603Z,19.65
2018-07-17T02:08:17.590Z,19.63
2018-07-17T02:09:17.545Z,19.68
2018-07-17T02:10:17.519Z,19.50
2018-07-17T02:11:17.479Z,19.66
2018-07-17T02:12:17.429Z,19.54
2018-07-17T02:13:17.401Z,19.48
2018-07-17T02:14:17.386Z,19.51
2018-07-17T02:15:17.327Z,19.53
2018-07-17T02:16:17.309Z,19.63
2018-07-17T02:17:17.315Z,19.50
2018-07-17T02:18:17.251Z,19.53
2018-07-17T02:19:17.282Z,19.50
2018-07-17T02:20:17.181Z,19.50
2018-07-17T02:21:17.143Z,19.53
2018-07-17T02:22:17.122Z,19.43
2018-07-17T02:23:17.078Z,19.43
2018-07-17T02:24:17.043Z,19.50
2018-07-17T02:25:17.014Z,19.50
2018-07-17T02:26:16.979Z,19.47
2018-07-17T02:27:16.964Z,19.57
2018-07-17T02:28:16.921Z,19.57
2018-07-17T02:29:16.906Z,19.58
2018-07-17T02:30:16.851Z,19.61
2018-07-17T02:31:16.826Z,19.54
2018-07-17T02:32:16.797Z,19.54
2018-07-17T02:33:16.766Z,19.57
2018-07-17T02:34:16.744Z,19.68
2018-07-17T02:35:16.697Z,19.48
2018-07-17T02:36:16.736Z,19.63
2018-07-17T02:37:16.639Z,19.60
2018-07-17T02:38:16.608Z,19.58
2018-07-17T02:39:16.563Z,19.48
2018-07-17T02:40:16.594Z,19.53
2018-07-17T02:41:16.505Z,19.51
2018-07-17T02:42:16.565Z,19.50
2018-07-17T02:43:16.436Z,19.60
2018-07-17T02:44:16.400Z,19.60
2018-07-17T02:45:16.376Z,19.51
2018-07-17T02:46:16.715Z,19.55
2018-07-17T02:47:16.315Z,19.48
2018-07-17T02:48:16.281Z,19.51
2018-07-17T02:49:16.237Z,19.43
2018-07-17T02:50:16.216Z,19.40
2018-07-17T02:51:16.182Z,19.33
2018-07-17T02:52:16.289Z,19.31
2018-07-17T02:53:16.113Z,19.25
2018-07-17T02:54:16.097Z,19.13
2018-07-17T02:55:16.047Z,19.23
2018-07-17T02:56:16.011Z,19.21
2018-07-17T02:57:15.990Z,19.24
2018-07-17T02:58:15.972Z,19.28
2018-07-17T02:59:15.924Z,19.25
2018-07-17T03:00:15.906Z,19.23
2018-07-17T03:01:15.875Z,19.21
2018-07-17T03:02:15.847Z,19.11
2018-07-17T03:03:15.789Z,19.10
2018-07-17T03:04:15.781Z,19.06
2018-07-17T03:05:15.735Z,19.08
2018-07-17T03:06:15.699Z,19.05
2018-07-17T03:07:15.670Z,19.01
2018-07-17T03:08:15.650Z,19.11
2018-07-17T03:09:15.606Z,19.08
2018-07-17T03:10:15.571Z,19.05
2018-07-17T03:11:15.548Z,19.15
2018-07-17T03:12:15.510Z,19.06
2018-07-17T03:13:15.631Z,19.11
2018-07-17T03:14:15.447Z,19.08
2018-07-17T03:15:15.420Z,19.05
2018-07-17T03:16:15.405Z,18.97
2018-07-17T03:17:15.347Z,18.94
2018-07-17T03:18:15.324Z,18.95
2018-07-17T03:19:15.368Z,19.05
2018-07-17T03:20:15.259Z,18.98
2018-07-17T03:21:15.227Z,19.01
2018-07-17T03:22:15.178Z,19.01
2018-07-17T03:23:15.155Z,18.94
2018-07-17T03:24:15.122Z,19.01
2018-07-17T03:25:15.091Z,18.99
2018-07-17T03:26:15.053Z,19.06
2018-07-17T03:27:15.012Z,19.10
2018-07-17T03:28:14.993Z,19.13
2018-07-17T03:29:15.027Z,19.18
2018-07-17T03:30:14.922Z,19.11
2018-07-17T03:31:14.889Z,19.13
2018-07-17T03:32:14.863Z,19.10
2018-07-17T03:33:14.832Z,19.11
2018-07-17T03:34:14.802Z,19.10
2018-07-17T03:35:14.763Z,19.13
2018-07-17T03:36:14.730Z,19.05
2018-07-17T03:37:14.783Z,19.05
2018-07-17T03:38:14.668Z,18.95
2018-07-17T03:39:14.627Z,18.87
2018-07-17T03:40:14.945Z,18.80
2018-07-17T03:41:14.580Z,18.84
2018-07-17T03:42:14.534Z,18.77
2018-07-17T03:43:14.506Z,18.82
2018-07-17T03:44:14.479Z,18.79
2018-07-17T03:45:14.463Z,18.65
2018-07-17T03:46:14.416Z,18.72
2018-07-17T03:47:14.394Z,18.68
2018-07-17T03:48:14.349Z,18.67
2018-07-17T03:49:14.310Z,18.67
2018-07-17T03:50:14.287Z,18.67
2018-07-17T03:51:14.253Z,18.62
2018-07-17T03:52:14.211Z,18.70
2018-07-17T03:53:14.183Z,18.70
2018-07-17T03:54:14.177Z,18.70
2018-07-17T03:55:14.133Z,18.65
2018-07-17T03:56:14.071Z,18.68
2018-07-17T03:57:14.043Z,18.62
2018-07-17T03:58:14.016Z,18.72
2018-07-17T03:59:13.980Z,18.64
2018-07-17T04:00:13.954Z,18.59
2018-07-17T04:01:13.916Z,18.64
2018-07-17T04:02:13.887Z,18.65
2018-07-17T04:03:13.848Z,18.67
2018-07-17T04:04:13.826Z,18.65
2018-07-17T04:05:13.795Z,18.59
2018-07-17T04:06:13.747Z,18.61
2018-07-17T04:07:13.730Z,18.59
2018-07-17T04:08:13.706Z,18.64
2018-07-17T04:09:13.672Z,18.74
2018-07-17T04:10:13.623Z,18.67
2018-07-17T04:11:13.592Z,18.58
2018-07-17T04:12:13.815Z,18.58
2018-07-17T04:13:13.605Z,18.54
2018-07-17T04:14:13.495Z,18.58
2018-07-17T04:15:13.452Z,18.58
2018-07-17T04:16:13.443Z,18.42
2018-07-17T04:17:13.394Z,18.47
2018-07-17T04:18:13.521Z,18.44
2018-07-17T04:19:13.325Z,18.47
2018-07-17T04:20:13.293Z,18.44
2018-07-17T04:21:13.270Z,18.44
2018-07-17T04:22:13.239Z,18.40
2018-07-17T04:23:13.197Z,18.47
2018-07-17T04:24:13.325Z,18.42
2018-07-17T04:25:13.127Z,18.44
2018-07-17T04:26:13.118Z,18.43
2018-07-17T04:27:13.104Z,18.50
2018-07-17T04:28:13.030Z,18.50
2018-07-17T04:29:13.001Z,18.57
2018-07-17T04:30:13.045Z,18.62
2018-07-17T04:31:12.938Z,18.70
2018-07-17T04:32:12.917Z,18.77
2018-07-17T04:33:12.910Z,18.82
2018-07-17T04:34:12.944Z,18.82
2018-07-17T04:35:12.804Z,18.90
2018-07-17T04:36:12.771Z,18.92
2018-07-17T04:37:12.736Z,18.91
2018-07-17T04:38:12.713Z,18.95
2018-07-17T04:39:12.675Z,18.86
2018-07-17T04:40:12.640Z,18.83
2018-07-17T04:41:12.611Z,18.83
2018-07-17T04:42:12.583Z,18.77
2018-07-17T04:43:12.556Z,18.80
2018-07-17T04:44:12.563Z,18.79
2018-07-17T04:45:12.478Z,18.72
2018-07-17T04:46:12.449Z,18.61
2018-07-17T04:47:12.414Z,18.70
2018-07-17T04:48:12.378Z,18.50
2018-07-17T04:49:12.345Z,18.46
2018-07-17T04:50:12.537Z,18.50
2018-07-17T04:51:12.287Z,18.44
2018-07-17T04:52:12.252Z,18.44
2018-07-17T04:53:12.211Z,18.43
2018-07-17T04:54:12.178Z,18.46
2018-07-17T04:55:12.145Z,18.40
2018-07-17T04:56:12.113Z,18.43
2018-07-17T04:57:12.080Z,18.36
2018-07-17T04:58:12.070Z,18.37
2018-07-17T04:59:12.019Z,18.43
2018-07-17T05:00:11.998Z,18.54
2018-07-17T05:01:11.961Z,18.50
2018-07-17T05:02:11.933Z,18.43
2018-07-17T05:03:11.885Z,18.49
2018-07-17T05:04:11.856Z,18.40
2018-07-17T05:05:11.819Z,18.46
2018-07-17T05:06:11.793Z,18.44
2018-07-17T05:07:11.766Z,18.40
2018-07-17T05:08:11.722Z,18.40
2018-07-17T05:09:11.689Z,18.34
2018-07-17T05:10:11.658Z,18.36
2018-07-17T05:11:11.638Z,18.34
2018-07-17T05:12:11.583Z,18.34
2018-07-17T05:13:11.576Z,18.29
2018-07-17T05:14:11.531Z,18.22
2018-07-17T05:15:11.503Z,18.27
2018-07-17T05:16:11.459Z,18.29
2018-07-17T05:17:11.631Z,18.28
2018-07-17T05:18:11.398Z,18.24
2018-07-17T05:19:11.352Z,18.25
2018-07-17T05:20:11.341Z,18.24
2018-07-17T05:21:11.309Z,18.19
2018-07-17T05:22:11.262Z,18.24
2018-07-17T05:23:11.329Z,18.33
2018-07-17T05:24:11.193Z,18.18
2018-07-17T05:25:11.164Z,18.17
2018-07-17T05:26:11.136Z,18.24
2018-07-17T05:27:11.099Z,18.19
2018-07-17T05:28:11.114Z,18.19
2018-07-17T05:29:11.025Z,18.13
2018-07-17T05:30:10.992Z,18.06
2018-07-17T05:31:10.969Z,18.04
2018-07-17T05:32:10.932Z,18.12
2018-07-17T05:33:10.900Z,18.18
2018-07-17T05:34:10.863Z,18.19
2018-07-17T05:35:10.885Z,18.18
2018-07-17T05:36:10.795Z,18.19
2018-07-17T05:37:10.771Z,18.25
2018-07-17T05:38:10.735Z,18.24
2018-07-17T05:39:10.698Z,18.36
2018-07-17T05:40:10.668Z,18.22
2018-07-17T05:41:10.634Z,18.25
2018-07-17T05:42:10.598Z,18.36
2018-07-17T05:43:10.575Z,18.27
2018-07-17T05:44:10.688Z,18.21
2018-07-17T05:45:10.504Z,18.29
2018-07-17T05:46:10.470Z,18.34
2018-07-17T05:47:10.432Z,18.22
2018-07-17T05:48:10.403Z,18.09
2018-07-17T05:49:10.372Z,18.04
2018-07-17T05:50:10.335Z,18.10
2018-07-17T05:51:10.303Z,18.04
2018-07-17T05:52:10.273Z,18.04
2018-07-17T05:53:10.269Z,18.02
2018-07-17T05:54:10.223Z,17.99
2018-07-17T05:55:10.176Z,18.09
2018-07-17T05:56:10.135Z,18.04
2018-07-17T05:57:10.112Z,17.99
2018-07-17T05:58:10.076Z,17.99
2018-07-17T05:59:10.041Z,17.99
2018-07-17T06:00:10.007Z,17.91
2018-07-17T06:01:09.985Z,17.85
2018-07-17T06:02:09.945Z,17.88
2018-07-17T06:03:09.902Z,17.89
2018-07-17T06:04:09.882Z,17.79
2018-07-17T06:05:09.837Z,17.79
2018-07-17T06:06:09.807Z,17.85
2018-07-17T06:07:09.788Z,17.85
2018-07-17T06:08:09.737Z,17.74
2018-07-17T06:09:09.701Z,17.78
2018-07-17T06:10:09.676Z,17.78
2018-07-17T06:11:09.644Z,17.67
2018-07-17T06:12:09.613Z,17.78
2018-07-17T06:13:09.580Z,17.76
2018-07-17T06:14:09.547Z,17.84
2018-07-17T06:15:09.508Z,17.88
2018-07-17T06:16:09.826Z,18.03
2018-07-17T06:17:09.446Z,18.03
2018-07-17T06:18:09.495Z,18.07
2018-07-17T06:19:09.449Z,18.02
2018-07-17T06:20:09.341Z,18.09
2018-07-17T06:21:09.317Z,18.18
2018-07-17T06:22:09.425Z,18.17
2018-07-17T06:23:09.244Z,18.15
2018-07-17T06:24:09.220Z,18.21
2018-07-17T06:25:09.219Z,18.19
2018-07-17T06:26:09.159Z,18.18
2018-07-17T06:27:09.113Z,18.06
2018-07-17T06:28:09.092Z,18.02
2018-07-17T06:29:09.043Z,18.04
2018-07-17T06:30:09.011Z,18.00
2018-07-17T06:31:08.980Z,17.87
2018-07-17T06:32:08.961Z,17.85
2018-07-17T06:33:08.927Z,17.84
2018-07-17T06:34:08.883Z,17.89
2018-07-17T06:35:08.840Z,17.87
2018-07-17T06:36:08.823Z,17.87
2018-07-17T06:37:08.779Z,17.91
2018-07-17T06:38:08.743Z,17.84
2018-07-17T06:39:08.723Z,17.85
2018-07-17T06:40:08.679Z,17.79
2018-07-17T06:41:08.645Z,17.69
2018-07-17T06:42:08.610Z,17.67
2018-07-17T06:43:08.585Z,17.64
2018-07-17T06:44:08.543Z,17.64
2018-07-17T06:45:08.516Z,17.66
2018-07-17T06:46:08.478Z,17.62
2018-07-17T06:47:08.445Z,17.55
2018-07-17T06:48:08.468Z,17.54
2018-07-17T06:49:08.531Z,17.43
2018-07-17T06:50:08.431Z,17.50
2018-07-17T06:51:08.315Z,17.35
2018-07-17T06:52:08.288Z,17.36
2018-07-17T06:53:08.248Z,17.35
2018-07-17T06:54:08.212Z,17.28
2018-07-17T06:55:08.181Z,17.33
2018-07-17T06:56:08.145Z,17.40
2018-07-17T06:57:08.126Z,17.40
2018-07-17T06:58:08.084Z,17.33
2018-07-17T06:59:08.056Z,17.46
2018-07-17T07:00:08.011Z,17.43
2018-07-17T07:01:07.980Z,17.50
2018-07-17T07:02:07.946Z,17.51
2018-07-17T07:03:07.909Z,17.54
2018-07-17T07:04:07.884Z,17.57
2018-07-17T07:05:07.848Z,17.57
2018-07-17T07:06:07.810Z,17.59
2018-07-17T07:07:07.777Z,17.59
2018-07-17T07:08:07.755Z,17.69
2018-07-17T07:09:07.712Z,17.63
2018-07-17T07:10:07.680Z,17.64
2018-07-17T07:11:07.699Z,17.54
2018-07-17T07:12:07.616Z,17.54
2018-07-17T07:13:07.573Z,17.62
2018-07-17T07:14:07.552Z,17.59
2018-07-17T07:15:07.717Z,17.51
2018-07-17T07:16:07.476Z,17.69
2018-07-17T07:17:07.451Z,17.63
2018-07-17T07:18:07.423Z,17.48
2018-07-17T07:19:07.375Z,17.40
2018-07-17T07:20:07.341Z,17.35
2018-07-17T07:21:07.318Z,17.32
2018-07-17T07:22:07.285Z,17.23
2018-07-17T07:23:07.540Z,17.13
2018-07-17T07:24:07.218Z,17.15
2018-07-17T07:25:07.180Z,17.17
2018-07-17T07:26:07.153Z,17.17
2018-07-17T07:27:07.113Z,17.20
2018-07-17T07:28:07.078Z,17.22
2018-07-17T07:29:07.039Z,17.18
2018-07-17T07:30:07.020Z,17.28
2018-07-17T07:31:07.046Z,17.14
2018-07-17T07:32:06.945Z,17.14
2018-07-17T07:33:06.913Z,17.07
2018-07-17T07:34:06.875Z,17.08
2018-07-17T07:35:06.847Z,17.13
2018-07-17T07:36:06.807Z,17.15
2018-07-17T07:37:06.779Z,17.18
2018-07-17T07:38:06.749Z,17.08
2018-07-17T07:39:06.703Z,17.08
2018-07-17T07:40:06.676Z,17.13
2018-07-17T07:41:06.647Z,17.15
2018-07-17T07:42:06.613Z,17.15
2018-07-17T07:43:06.572Z,17.20
2018-07-17T07:44:06.542Z,17.11
2018-07-17T07:45:06.506Z,17.17
2018-07-17T07:46:06.481Z,17.14
2018-07-17T07:47:06.596Z,17.11
2018-07-17T07:48:06.398Z,17.10
2018-07-17T07:49:06.497Z,17.06
2018-07-17T07:50:06.342Z,17.13
2018-07-17T07:51:06.309Z,17.08
2018-07-17T07:52:06.277Z,17.04
2018-07-17T07:53:06.236Z,17.08
2018-07-17T07:54:06.203Z,17.13
2018-07-17T07:55:06.164Z,17.11
2018-07-17T07:56:06.137Z,17.08
2018-07-17T07:57:06.098Z,17.11
2018-07-17T07:58:06.068Z,17.15
2018-07-17T07:59:06.034Z,17.11
2018-07-17T08:00:06.005Z,17.13
2018-07-17T08:01:05.969Z,17.08
2018-07-17T08:02:05.935Z,17.23
2018-07-17T08:03:05.942Z,17.23
2018-07-17T08:04:05.947Z,17.18
2018-07-17T08:05:05.831Z,17.17
2018-07-17T08:06:05.805Z,17.17
2018-07-17T08:07:05.760Z,17.28
2018-07-17T08:08:05.731Z,17.23
2018-07-17T08:09:05.732Z,17.14
2018-07-17T08:10:05.660Z,17.11
2018-07-17T08:11:05.630Z,17.20
2018-07-17T08:12:05.621Z,17.15
2018-07-17T08:13:05.558Z,17.11
2018-07-17T08:14:05.726Z,17.00
2018-07-17T08:15:05.496Z,17.10
2018-07-17T08:16:05.468Z,17.04
2018-07-17T08:17:05.438Z,17.08
2018-07-17T08:18:05.402Z,17.13
2018-07-17T08:19:05.358Z,17.14
2018-07-17T08:20:05.425Z,17.10
2018-07-17T08:21:05.296Z,17.10
2018-07-17T08:22:05.264Z,17.15
2018-07-17T08:23:05.267Z,17.08
2018-07-17T08:24:05.193Z,17.06
2018-07-17T08:25:05.152Z,17.06
2018-07-17T08:26:05.125Z,17.07
2018-07-17T08:27:05.096Z,16.96
2018-07-17T08:28:05.068Z,17.04
2018-07-17T08:29:05.025Z,16.99
2018-07-17T08:30:04.995Z,17.07
2018-07-17T08:31:04.962Z,16.98
2018-07-17T08:32:04.946Z,17.06
2018-07-17T08:33:04.884Z,17.06
2018-07-17T08:34:04.861Z,17.10
2018-07-17T08:35:04.821Z,17.06
2018-07-17T08:36:04.785Z,17.15
2018-07-17T08:37:04.749Z,17.13
2018-07-17T08:38:04.721Z,17.10
2018-07-17T08:39:04.692Z,17.23
2018-07-17T08:40:04.657Z,17.17
2018-07-17T08:41:04.621Z,17.20
2018-07-17T08:42:04.586Z,17.26
2018-07-17T08:43:04.551Z,17.35
2018-07-17T08:44:04.518Z,17.33
2018-07-17T08:45:04.513Z,17.41
2018-07-17T08:46:04.879Z,17.47
2018-07-17T08:47:04.414Z,17.50
2018-07-17T08:48:04.384Z,17.47
2018-07-17T08:49:04.417Z,17.40
2018-07-17T08:50:04.312Z,17.25
2018-07-17T08:51:04.278Z,17.04
2018-07-17T08:52:04.242Z,17.00
2018-07-17T08:53:04.210Z,17.04
2018-07-17T08:54:04.253Z,16.85
2018-07-17T08:55:04.136Z,16.83
2018-07-17T08:56:04.109Z,16.78
2018-07-17T08:57:04.071Z,16.75
2018-07-17T08:58:04.042Z,16.81
2018-07-17T08:59:04.010Z,16.83
2018-07-17T09:00:03.998Z,16.88
2018-07-17T09:01:03.939Z,17.00
2018-07-17T09:02:03.902Z,17.00
2018-07-17T09:03:03.957Z,16.86
2018-07-17T09:04:03.835Z,16.78
2018-07-17T09:05:03.801Z,16.74
2018-07-17T09:06:03.857Z,16.73
2018-07-17T09:07:03.735Z,16.60
2018-07-17T09:08:03.771Z,16.60
2018-07-17T09:09:03.752Z,16.62
2018-07-17T09:10:03.659Z,16.56
2018-07-17T09:11:03.605Z,16.62
2018-07-17T09:12:03.590Z,16.59
2018-07-17T09:13:03.570Z,16.70
2018-07-17T09:14:03.498Z,16.78
2018-07-17T09:15:03.464Z,16.85
2018-07-17T09:16:03.454Z,16.99
2018-07-17T09:17:03.392Z,17.03
2018-07-17T09:18:03.362Z,17.10
2018-07-17T09:19:03.330Z,17.08
2018-07-17T09:20:03.301Z,17.08
2018-07-17T09:21:03.261Z,17.06
2018-07-17T09:22:03.239Z,16.95
2018-07-17T09:23:03.191Z,17.04
2018-07-17T09:24:03.162Z,17.00
2018-07-17T09:25:03.127Z,16.99
2018-07-17T09:26:03.085Z,17.04
2018-07-17T09:27:03.067Z,16.90
2018-07-17T09:28:03.035Z,16.86
2018-07-17T09:29:02.988Z,16.78
2018-07-17T09:30:02.950Z,16.75
2018-07-17T09:31:02.920Z,16.80
2018-07-17T09:32:02.883Z,16.78
2018-07-17T09:33:02.849Z,16.73
2018-07-17T09:34:02.826Z,16.74
2018-07-17T09:35:02.785Z,16.75
2018-07-17T09:36:02.745Z,16.70
2018-07-17T09:37:02.713Z,16.68
2018-07-17T09:38:02.675Z,16.80
2018-07-17T09:39:02.689Z,16.67
2018-07-17T09:40:02.612Z,16.63
2018-07-17T09:41:02.577Z,16.65
2018-07-17T09:42:02.542Z,16.60
2018-07-17T09:43:02.510Z,16.65
2018-07-17T09:44:02.624Z,16.71
2018-07-17T09:45:02.450Z,16.71
2018-07-17T09:46:35.605Z,16.78
2018-07-17T09:47:02.368Z,16.77
2018-07-17T09:48:02.341Z,16.81
2018-07-17T09:49:02.293Z,16.90
2018-07-17T09:50:02.567Z,16.88
2018-07-17T09:51:02.235Z,16.86
2018-07-17T09:52:02.199Z,16.89
2018-07-17T09:53:02.167Z,16.93
2018-07-17T09:54:02.139Z,16.99
2018-07-17T09:55:02.101Z,16.92
2018-07-17T09:56:02.067Z,16.95
2018-07-17T09:57:02.018Z,16.93
2018-07-17T09:58:01.985Z,17.00
2018-07-17T09:59:01.960Z,16.93
2018-07-17T10:00:01.916Z,17.07
2018-07-17T10:01:01.884Z,17.10
2018-07-17T10:02:01.858Z,17.11
2018-07-17T10:03:01.823Z,16.98
2018-07-17T10:04:01.783Z,17.00
2018-07-17T10:05:01.753Z,16.99
2018-07-17T10:06:01.719Z,16.95
2018-07-17T10:07:01.684Z,16.89
2018-07-17T10:08:01.645Z,16.86
2018-07-17T10:09:01.618Z,16.81
2018-07-17T10:10:01.580Z,16.83
2018-07-17T10:11:01.546Z,16.78
2018-07-17T10:12:01.510Z,16.74
2018-07-17T10:13:01.478Z,16.75
2018-07-17T10:14:01.443Z,16.80
2018-07-17T10:15:01.415Z,16.85
2018-07-17T10:16:01.388Z,16.80
2018-07-17T10:17:01.381Z,16.90
2018-07-17T10:18:01.312Z,16.92
2018-07-17T10:19:01.302Z,16.88
2018-07-17T10:20:01.307Z,16.95
2018-07-17T10:21:01.209Z,16.92
2018-07-17T10:22:01.173Z,17.06
2018-07-17T10:23:01.144Z,17.00
2018-07-17T10:24:01.122Z,17.17
2018-07-17T10:25:01.073Z,17.13
2018-07-17T10:26:01.036Z,17.22
2018-07-17T10:27:01.003Z,17.25
2018-07-17T10:28:00.982Z,17.28
2018-07-17T10:29:00.937Z,17.46
2018-07-17T10:30:00.910Z,17.54
2018-07-17T10:31:00.869Z,17.53
2018-07-17T10:32:00.838Z,17.55
2018-07-17T10:33:00.806Z,17.59
2018-07-17T10:34:00.768Z,17.69
2018-07-17T10:35:00.734Z,17.79
2018-07-17T10:36:00.698Z,17.85
2018-07-17T10:37:00.666Z,17.94
2018-07-17T10:38:00.648Z,18.03
2018-07-17T10:39:00.602Z,18.06
2018-07-17T10:40:00.570Z,18.21
2018-07-17T10:41:00.541Z,18.21
2018-07-17T10:42:00.907Z,18.24
2018-07-17T10:43:00.474Z,18.39
2018-07-17T10:44:00.436Z,18.33
2018-07-17T10:45:00.402Z,18.31
2018-07-17T10:46:00.366Z,18.39
2018-07-17T10:47:00.336Z,18.49
2018-07-17T10:48:00.399Z,18.42
2018-07-17T10:49:00.269Z,18.58
2018-07-17T10:50:00.236Z,18.59
2018-07-17T10:51:00.200Z,18.59
2018-07-17T10:52:00.195Z,18.64
2018-07-17T10:53:00.134Z,18.68
2018-07-17T10:54:00.099Z,18.68
2018-07-17T10:55:00.076Z,18.79
2018-07-17T10:56:00.036Z,18.83
2018-07-17T10:57:00.008Z,18.83
2018-07-17T10:57:59.975Z,18.90
2018-07-17T10:58:59.944Z,18.79
2018-07-17T10:59:59.903Z,18.95
2018-07-17T11:00:59.949Z,18.97
2018-07-17T11:01:59.840Z,19.08
2018-07-17T11:02:59.804Z,19.06
2018-07-17T11:03:59.779Z,19.10
2018-07-17T11:04:59.737Z,19.08
2018-07-17T11:05:59.706Z,19.11
2018-07-17T11:06:59.682Z,19.15
2018-07-17T11:07:59.693Z,19.23
2018-07-17T11:08:59.912Z,19.21
2018-07-17T11:09:59.582Z,19.29
2018-07-17T11:10:59.545Z,19.24
2018-07-17T11:11:59.520Z,19.35
2018-07-17T11:12:59.478Z,19.32
2018-07-17T11:13:59.446Z,19.31
2018-07-17T11:15:59.425Z,19.36
2018-07-17T11:16:59.347Z,19.43
2018-07-17T11:17:59.309Z,19.42
2018-07-17T11:18:59.287Z,19.47
2018-07-17T11:19:59.251Z,19.48
2018-07-17T11:20:59.220Z,19.54
2018-07-17T11:21:59.184Z,19.60
2018-07-17T11:22:59.154Z,19.55
2018-07-17T11:23:59.129Z,19.54
2018-07-17T11:24:59.084Z,19.66
2018-07-17T11:25:59.066Z,19.69
2018-07-17T11:26:59.022Z,19.72
2018-07-17T11:27:58.990Z,19.69
2018-07-17T11:28:59.041Z,19.76
2018-07-17T11:29:58.928Z,19.68
2018-07-17T11:30:58.891Z,19.68
2018-07-17T11:31:58.942Z,19.76
2018-07-17T11:32:58.831Z,19.84
2018-07-17T11:33:58.795Z,19.87
2018-07-17T11:34:58.768Z,19.83
2018-07-17T11:35:58.737Z,19.91
2018-07-17T11:36:58.705Z,20.00
2018-07-17T11:37:58.666Z,20.05
2018-07-17T11:38:58.638Z,20.03
2018-07-17T11:39:58.617Z,20.00
2018-07-17T11:40:58.672Z,20.03
2018-07-17T11:41:58.541Z,20.13
2018-07-17T11:42:58.516Z,20.16
2018-07-17T11:43:58.487Z,20.18
2018-07-17T11:44:58.449Z,20.23
2018-07-17T11:45:58.413Z,20.28
2018-07-17T11:46:58.392Z,20.43
2018-07-17T11:47:58.511Z,20.39
2018-07-17T11:48:58.329Z,20.47
2018-07-17T11:49:58.299Z,20.53
2018-07-17T11:50:58.255Z,20.53
2018-07-17T11:51:58.223Z,20.64
2018-07-17T11:52:58.206Z,20.64
2018-07-17T11:53:58.158Z,20.64
2018-07-17T11:54:58.128Z,20.77
2018-07-17T11:55:58.100Z,20.81
2018-07-17T11:56:58.083Z,20.84
2018-07-17T11:57:58.044Z,20.93
2018-07-17T11:58:58.081Z,20.87
2018-07-17T11:59:57.974Z,20.91
2018-07-17T12:00:57.942Z,21.01
2018-07-17T12:01:57.909Z,20.98
2018-07-17T12:02:57.880Z,20.95
2018-07-17T12:03:57.847Z,21.06
2018-07-17T12:04:57.820Z,21.14
2018-07-17T12:05:57.835Z,21.17
2018-07-17T12:06:57.753Z,21.27
2018-07-17T12:07:57.739Z,21.24
2018-07-17T12:08:57.714Z,21.30
2018-07-17T12:09:57.659Z,21.41
2018-07-17T12:10:57.630Z,21.30
2018-07-17T12:11:57.606Z,21.32
2018-07-17T12:12:57.574Z,21.27
2018-07-17T12:13:57.535Z,21.35
2018-07-17T12:14:57.512Z,21.45
2018-07-17T12:15:57.477Z,21.41
2018-07-17T12:16:57.450Z,21.42
2018-07-17T12:17:57.420Z,21.46
2018-07-17T12:18:57.395Z,21.59
2018-07-17T12:19:57.476Z,21.54
2018-07-17T12:20:57.364Z,21.61
2018-07-17T12:21:57.293Z,21.63
2018-07-17T12:22:57.321Z,21.64
2018-07-17T12:23:57.229Z,21.76
2018-07-17T12:24:57.193Z,21.61
2018-07-17T12:25:57.184Z,21.74
2018-07-17T12:26:57.151Z,21.75
2018-07-17T12:27:57.157Z,21.76
2018-07-17T12:28:57.070Z,21.76
2018-07-17T12:29:57.046Z,21.72
2018-07-17T12:30:57.006Z,21.78
2018-07-17T12:31:57.000Z,21.82
2018-07-17T12:32:57.023Z,21.78
2018-07-17T12:33:56.927Z,21.92
2018-07-17T12:34:56.952Z,21.83
2018-07-17T12:35:56.861Z,21.88
2018-07-17T12:36:56.822Z,21.97
2018-07-17T12:37:56.840Z,21.98
2018-07-17T12:38:56.773Z,21.95
2018-07-17T12:39:56.733Z,22.04
2018-07-17T12:40:56.713Z,22.07
2018-07-17T12:41:56.669Z,22.04
2018-07-17T12:42:56.649Z,22.04
2018-07-17T12:43:56.768Z,22.10
2018-07-17T12:44:56.594Z,22.17
2018-07-17T12:45:56.549Z,22.14
2018-07-17T12:46:56.525Z,22.22
2018-07-17T12:47:56.615Z,22.22
2018-07-17T12:48:56.615Z,22.22
2018-07-17T12:49:56.753Z,22.27
2018-07-17T12:50:56.524Z,22.28
2018-07-17T12:51:56.527Z,22.31
2018-07-17T12:52:56.504Z,22.38
2018-07-17T12:53:56.456Z,22.34
2018-07-17T12:54:56.783Z,22.46